^^
Station Historical Data
Daily Summary for February 2, 2017 Units:  Metric    English   Both
« Previous Day
Next Day »
Daily Weekly Monthly Yearly Custom
  High: Low: Average:
Temperature: 36.3 °C 20.8 °C 29.4 °C
Dew Point: 16.2 °C 8.4 °C 11.5 °C
Humidity: 53% 22% 35%
Wind Speed: 25.9km/h 0km/h 14.3km/h
Wind Gust: 35.4km/h - -
Wind- - South
Pressure: 1008.7 hPa 1002.3 hPa -
Precipitation: 0 mm    
Historical Graphs
 
 
Tabular Data for February 2, 2017
Time Temperature Dew Point Pressure Wind Wind Speed Wind Gust Humidity Rainfall Rate (Hourly) solar Conditions
07:30 20.8 °C 10.9 °C 1008.7 hPa SW 14.3 km/h 17.7 km/h 53% 0 mm 169.0 W/m2
07:35 20.9 °C 10.7 °C 1008.7 hPa SW 13 km/h 19.3 km/h 52% 0 mm 186.0 W/m2
07:40 21.1 °C 10.9 °C 1008.4 hPa SW 13 km/h 17.7 km/h 52% 0 mm 213.0 W/m2
07:45 21.3 °C 10.8 °C 1008.4 hPa SW 16.3 km/h 17.7 km/h 51% 0 mm 232.0 W/m2
07:55 21.4 °C 10.8 °C 1008.4 hPa SW 16.3 km/h 19.3 km/h 51% 0 mm 267.0 W/m2
08:00 21.6 °C 11 °C 1008.4 hPa SW 16.3 km/h 17.7 km/h 51% 0 mm 285.0 W/m2
08:05 21.8 °C 10.9 °C 1008.4 hPa SW 14.3 km/h 19.3 km/h 50% 0 mm 302.0 W/m2
08:11 21.9 °C 10.7 °C 1008.4 hPa SW 16.3 km/h 17.7 km/h 49% 0 mm 322.0 W/m2
08:25 22.4 °C 10.8 °C 1008.4 hPa SW 20.9 km/h 20.9 km/h 48% 0 mm 378.0 W/m2
08:30 22.6 °C 11 °C 1008.4 hPa SW 13 km/h 19.3 km/h 48% 0 mm 394.0 W/m2
08:35 22.7 °C 10.8 °C 1008.4 hPa SW 16.3 km/h 19.3 km/h 47% 0 mm 411.0 W/m2
08:40 22.9 °C 11 °C 1008 hPa SW 13 km/h 19.3 km/h 47% 0 mm 427.0 W/m2
08:46 23 °C 10.8 °C 1008 hPa SW 16.3 km/h 20.9 km/h 46% 0 mm 446.0 W/m2
08:55 23.5 °C 10.9 °C 1008.4 hPa SW 17.7 km/h 17.7 km/h 45% 0 mm 482.0 W/m2
09:06 23.8 °C 10.8 °C 1008.4 hPa SW 16.3 km/h 17.7 km/h 44% 0 mm 515.0 W/m2
09:16 24.2 °C 10.8 °C 1008.4 hPa SW 19.5 km/h 22.5 km/h 43% 0 mm 548.0 W/m2
09:26 24.5 °C 10.7 °C 1008.4 hPa SW 11.1 km/h 19.3 km/h 42% 0 mm 580.0 W/m2
09:33 24.6 °C 10.8 °C 1008 hPa SW 9.7 km/h 17.7 km/h 42% 0 mm 596.0 W/m2
09:34 24.8 °C 10.7 °C 1008 hPa SW 14.3 km/h 19.3 km/h 41% 0 mm 613.0 W/m2
09:50 25.1 °C 10.9 °C 1008 hPa SW 9.7 km/h 16.1 km/h 41% 0 mm 645.0 W/m2
09:55 25.7 °C 10.7 °C 1008 hPa SW 11.1 km/h 16.1 km/h 39% 0 mm 673.0 W/m2
10:05 26.3 °C 10.8 °C 1008 hPa SW 14.3 km/h 14.5 km/h 38% 0 mm 705.0 W/m2
10:11 26.3 °C 10.8 °C 1008 hPa SW 14.3 km/h 14.5 km/h 38% 0 mm 705.0 W/m2
10:26 27 °C 10.7 °C 1008 hPa SW 14.3 km/h 19.3 km/h 36% 0 mm 744.0 W/m2
10:35 27.3 °C 10.9 °C 1007.7 hPa SW 3.2 km/h 16.1 km/h 36% 0 mm 782.0 W/m2
10:54 28.1 °C 11.2 °C 1007.7 hPa SW 7.9 km/h 11.3 km/h 35% 0 mm 817.0 W/m2
11:03 28.6 °C 11.2 °C 1007.7 hPa SW 13 km/h 13 km/h 34% 0 mm 842.0 W/m2
11:13 28.9 °C 11.5 °C 1007.7 hPa Calm     34% 0 mm 861.0 W/m2
15:45 35.6 °C 11.9 °C 1003.9 hPa SSW 7.9 km/h 16.1 km/h 24% 0 mm 751.0 W/m2
15:54 35.6 °C 11.9 °C 1003.9 hPa Calm     24% 0 mm 722.0 W/m2
15:56 35.8 °C 12.1 °C 1003.6 hPa South 20.9 km/h 20.9 km/h 24% 0 mm 708.0 W/m2
16:06 35.7 °C 12 °C 1003.6 hPa South 16.3 km/h 20.9 km/h 24% 0 mm 684.0 W/m2
16:28 35.8 °C 11.4 °C 1003.6 hPa SW 16.3 km/h 24.1 km/h 23% 0 mm 517.0 W/m2
16:36 36 °C 11.6 °C 1003.3 hPa SSW 13 km/h 25.7 km/h 23% 0 mm 613.0 W/m2
16:51 35.8 °C 11.4 °C 1003.3 hPa South 4.7 km/h 4.8 km/h 23% 0 mm 547.0 W/m2
17:07 36.3 °C 11.9 °C 1002.9 hPa South 6.4 km/h 11.3 km/h 23% 0 mm 490.0 W/m2
17:17 36.1 °C 11.7 °C 1002.9 hPa SSW 16.3 km/h 24.1 km/h 23% 0 mm 461.0 W/m2
17:27 36.1 °C 11 °C 1002.9 hPa SW 11.1 km/h 17.7 km/h 22% 0 mm 445.0 W/m2
17:32 36.3 °C 11.2 °C 1002.9 hPa South 17.7 km/h 20.9 km/h 22% 0 mm 441.0 W/m2
17:42 36.1 °C 13.6 °C 1002.9 hPa East 25.9 km/h 33.8 km/h 26% 0 mm 410.0 W/m2
17:57 35.8 °C 12.7 °C 1002.6 hPa East 9.7 km/h 19.3 km/h 25% 0 mm 313.0 W/m2
18:07 35.7 °C 12.6 °C 1002.3 hPa East 13 km/h 24.1 km/h 25% 0 mm 274.0 W/m2
18:17 35.4 °C 12.4 °C 1002.6 hPa East 17.7 km/h 19.3 km/h 25% 0 mm 241.0 W/m2
18:27 35.3 °C 11.7 °C 1002.6 hPa East 3.2 km/h 9.7 km/h 24% 0 mm 200.0 W/m2
18:42 35.3 °C 11 °C 1002.6 hPa East 6.4 km/h 11.3 km/h 23% 0 mm 134.0 W/m2
18:58 35.2 °C 11.6 °C 1002.6 hPa SE 17.7 km/h 19.3 km/h 24% 0 mm 81.0 W/m2
19:08 35 °C 11.4 °C 1002.9 hPa Calm   11.3 km/h 24% 0 mm 51.0 W/m2
19:18 34.9 °C 11.3 °C 1002.9 hPa SE 13 km/h 17.7 km/h 24% 0 mm 32.0 W/m2
19:34 34.6 °C 10.4 °C 1003.3 hPa SE 17.7 km/h 19.3 km/h 23% 0 mm 19.0 W/m2
19:49 34 °C 9.3 °C 1003.3 hPa South 17.7 km/h 27.4 km/h 22% 0 mm 5.0 W/m2
20:00 33.7 °C 9 °C 1003.6 hPa South 19.5 km/h 24.1 km/h 22% 0 mm 0.0 W/m2
20:15 33.4 °C 9.4 °C 1003.6 hPa South 17.7 km/h 20.9 km/h 23% 0 mm 0.0 W/m2
20:29 33.2 °C 9.3 °C 1003.6 hPa South 14.3 km/h 22.5 km/h 23% 0 mm 0.0 W/m2
20:33 33 °C 9.1 °C 1003.9 hPa South 20.9 km/h 25.7 km/h 23% 0 mm 0.0 W/m2
20:49 32.9 °C 8.4 °C 1003.9 hPa South 20.9 km/h 25.7 km/h 22% 0 mm 0.0 W/m2
21:08 32.2 °C 10.8 °C 1004.6 hPa South 16.3 km/h 25.7 km/h 27% 0 mm 0.0 W/m2
21:14 31.6 °C 10.9 °C 1005 hPa South 17.7 km/h 20.9 km/h 28% 0 mm 0.0 W/m2
21:24 31.4 °C 10.7 °C 1005.6 hPa South 16.3 km/h 24.1 km/h 28% 0 mm 0.0 W/m2
21:34 31.1 °C 11 °C 1006.3 hPa South 14.3 km/h 14.5 km/h 29% 0 mm 0.0 W/m2
21:50 30.8 °C 10.7 °C 1007 hPa South 14.3 km/h 16.1 km/h 29% 0 mm 0.0 W/m2
22:05 30.6 °C 11.5 °C 1007.3 hPa SW 13 km/h 24.1 km/h 31% 0 mm 0.0 W/m2
22:22 29.3 °C 14.3 °C 1008 hPa NW 19.5 km/h 22.5 km/h 40% 0 mm 0.0 W/m2
22:37 28.1 °C 15.4 °C 1008.4 hPa NNW 25.9 km/h 35.4 km/h 46% 0 mm 0.0 W/m2
22:50 27.8 °C 14.8 °C 1008 hPa North 24.1 km/h 25.7 km/h 45% 0 mm 0.0 W/m2
22:54 27.9 °C 15.2 °C 1008.4 hPa North 14.3 km/h 29 km/h 46% 0 mm 0.0 W/m2
23:09 27.4 °C 16.1 °C 1008 hPa North 20.9 km/h 24.1 km/h 50% 0 mm 0.0 W/m2
23:25 27.2 °C 16.2 °C 1008.4 hPa North 17.7 km/h 29 km/h 51% 0 mm 0.0 W/m2
23:39 27.6 °C 14.9 °C 1008.7 hPa North 20.9 km/h 27.4 km/h 46% 0 mm 0.0 W/m2
23:46 27.7 °C 14.7 °C 1008.7 hPa North 11.1 km/h 27.4 km/h 45% 0 mm 0.0 W/m2
Canyon Roadhouse, Fishriver Canyon, Namibia
Compliments of Weather Underground - 2 mb